Time;durP1;ratioP1;P1;durP2;ratioP2;P2;SDS_P1;SDS_P2;PMS_P1;PMS_P2;Temp;Humidity;BMP_temperature;BMP_pressure;BME280_temperature;BME280_humidity;BME280_pressure;Samples;Min_cycle;Max_cycle;Signal;HPM_P1;HPM_P2
2021/12/26 00:01:40;;;;;;;10.45;7.10;;;;;;;0.45;81.29;100228.38;6214669;23;20080;-78
2021/12/26 00:04:07;;;;;;;10.93;7.38;;;;;;;0.46;81.44;100222.31;6214859;23;20017;-79
2021/12/26 00:06:34;;;;;;;9.55;6.93;;;;;;;0.49;81.58;100226.41;6215267;23;20021;-78
2021/12/26 00:09:01;;;;;;;13.40;7.07;;;;;;;0.49;81.46;100216.09;6215232;23;20391;-78
2021/12/26 00:11:28;;;;;;;9.77;7.50;;;;;;;0.49;81.73;100223.84;6216268;23;20016;-79
2021/12/26 00:13:55;;;;;;;11.00;7.40;;;;;;;0.47;80.96;100205.13;6217004;23;20123;-78
2021/12/26 00:16:22;;;;;;;10.75;7.38;;;;;;;0.44;81.46;100211.28;6216645;23;20021;-78
2021/12/26 00:18:50;;;;;;;9.50;7.20;;;;;;;0.45;81.69;100212.94;6216412;23;20095;-78
2021/12/26 00:21:19;;;;;;;10.07;7.05;;;;;;;0.47;81.57;100207.69;6217446;23;20051;-78
2021/12/26 00:23:46;;;;;;;9.43;6.85;;;;;;;0.46;82.02;100212.03;6216620;23;20091;-80
2021/12/26 00:26:13;;;;;;;9.43;7.28;;;;;;;0.43;81.56;100211.41;6216080;23;20130;-78
2021/12/26 00:28:40;;;;;;;10.15;7.53;;;;;;;0.49;81.51;100200.66;6215476;23;20095;-78
2021/12/26 00:31:07;;;;;;;10.50;7.90;;;;;;;0.48;80.88;100201.59;6216501;23;20052;-78
2021/12/26 00:33:34;;;;;;;9.65;7.20;;;;;;;0.43;81.32;100201.94;6216319;23;20092;-78
2021/12/26 00:36:03;;;;;;;10.65;7.00;;;;;;;0.43;81.24;100195.94;6216272;23;20095;-78
2021/12/26 00:38:30;;;;;;;10.55;6.68;;;;;;;0.42;81.93;100199.44;6216111;23;20509;-78
2021/12/26 00:40:57;;;;;;;11.38;7.25;;;;;;;0.42;81.53;100194.31;6216503;23;20050;-79
2021/12/26 00:43:23;;;;;;;11.40;7.55;;;;;;;0.46;81.78;100196.56;6216650;23;20091;-78
2021/12/26 00:45:50;;;;;;;10.50;7.40;;;;;;;0.41;81.27;100195.22;6216366;23;20024;-78
2021/12/26 00:48:17;;;;;;;8.88;6.80;;;;;;;0.40;82.05;100193.59;6215574;23;20558;-81
2021/12/26 00:50:44;;;;;;;11.35;7.85;;;;;;;0.39;81.74;100189.34;6216342;23;20507;-78
2021/12/26 00:53:12;;;;;;;10.90;7.78;;;;;;;0.41;81.58;100188.34;6216472;23;20020;-78
2021/12/26 00:55:40;;;;;;;10.77;7.35;;;;;;;0.38;81.24;100185.97;6216455;23;20099;-79
2021/12/26 00:58:08;;;;;;;10.32;7.35;;;;;;;0.41;81.66;100182.34;6216315;23;20382;-77
2021/12/26 01:00:39;;;;;;;9.95;7.03;;;;;;;0.41;81.82;100182.34;6216523;23;20020;-78
2021/12/26 01:03:07;;;;;;;9.43;7.22;;;;;;;0.39;82.19;100176.50;6216351;23;20092;-77
2021/12/26 01:05:38;;;;;;;9.32;7.18;;;;;;;0.38;81.59;100182.56;6216459;23;20099;-78
2021/12/26 01:08:09;;;;;;;9.48;7.10;;;;;;;0.41;81.97;100190.09;6216204;23;20472;-78
2021/12/26 01:10:44;;;;;;;10.50;7.05;;;;;;;0.43;82.11;100183.09;6216344;23;20021;-78
2021/12/26 01:13:18;;;;;;;10.63;7.00;;;;;;;0.39;81.86;100185.03;6215876;23;20583;-78
2021/12/26 01:15:52;;;;;;;10.48;7.57;;;;;;;0.44;82.42;100184.72;6215977;23;20392;-79
2021/12/26 01:18:19;;;;;;;10.85;7.18;;;;;;;0.39;82.26;100177.31;6215076;23;20368;-78
2021/12/26 01:20:53;;;;;;;10.63;7.18;;;;;;;0.41;82.07;100183.19;6216674;23;20016;-78
2021/12/26 01:23:23;;;;;;;10.50;7.50;;;;;;;0.42;82.71;100184.84;6215603;23;20032;-80
2021/12/26 01:25:51;;;;;;;13.23;8.05;;;;;;;0.42;82.76;100184.00;6216684;23;20075;-78
2021/12/26 01:28:19;;;;;;;13.23;7.80;;;;;;;0.41;82.63;100183.19;6216361;23;20092;-79
2021/12/26 01:30:50;;;;;;;11.07;7.78;;;;;;;0.40;82.53;100188.44;6215610;23;20020;-78
2021/12/26 01:33:20;;;;;;;10.02;7.50;;;;;;;0.38;83.21;100178.25;6218482;23;20087;-80
2021/12/26 01:35:48;;;;;;;9.38;7.22;;;;;;;0.40;83.14;100185.84;6218183;23;20040;-79
2021/12/26 01:38:19;;;;;;;9.82;7.53;;;;;;;0.41;82.78;100187.50;6217059;23;20044;-81
2021/12/26 01:40:49;;;;;;;11.02;7.85;;;;;;;0.42;82.43;100191.72;6217440;23;20017;-77
2021/12/26 01:43:26;;;;;;;9.55;7.75;;;;;;;0.40;82.58;100185.84;6216479;23;20020;-78
2021/12/26 01:45:54;;;;;;;11.40;7.88;;;;;;;0.43;83.21;100185.66;6215924;23;20043;-78
2021/12/26 01:48:21;;;;;;;12.70;8.57;;;;;;;0.45;83.15;100182.06;6215634;23;20016;-79
2021/12/26 01:50:51;;;;;;;10.77;8.30;;;;;;;0.45;83.26;100184.63;6216811;23;20332;-78
2021/12/26 01:53:20;;;;;;;10.45;7.95;;;;;;;0.44;82.90;100174.44;6221597;23;20020;-76
2021/12/26 01:55:47;;;;;;;10.90;7.88;;;;;;;0.45;83.31;100178.66;6224438;23;20017;-76
2021/12/26 01:58:18;;;;;;;11.73;8.38;;;;;;;0.47;82.96;100181.97;6219711;23;20095;-78
2021/12/26 02:00:49;;;;;;;14.60;8.52;;;;;;;0.45;83.32;100182.06;6217011;23;20039;-78
2021/12/26 02:03:16;;;;;;;12.27;8.25;;;;;;;0.47;83.55;100181.97;6216308;23;20083;-79
2021/12/26 02:05:43;;;;;;;12.43;8.13;;;;;;;0.46;83.69;100182.88;6216502;23;20376;-79
2021/12/26 02:08:10;;;;;;;13.90;8.77;;;;;;;0.48;83.67;100174.09;6216362;23;20658;-78
2021/12/26 02:10:36;;;;;;;11.82;7.47;;;;;;;0.49;83.65;100180.06;6217224;23;20096;-78
2021/12/26 02:13:03;;;;;;;10.65;7.55;;;;;;;0.50;83.86;100181.72;6215995;23;20346;-79
2021/12/26 02:15:31;;;;;;;10.73;8.15;;;;;;;0.51;84.12;100167.91;6216964;23;20076;-79
2021/12/26 02:17:59;;;;;;;13.15;8.35;;;;;;;0.55;83.79;100170.19;6216738;23;20072;-78
2021/12/26 02:20:37;;;;;;;11.48;7.90;;;;;;;0.56;83.90;100163.28;6215972;23;20027;-78
2021/12/26 02:23:10;;;;;;;12.90;8.48;;;;;;;0.54;84.09;100163.41;6216149;23;20027;-78
2021/12/26 02:28:20;;;;;;;12.23;8.20;;;;;;;0.51;84.01;100162.78;6181479;23;20020;-80
2021/12/26 02:30:47;;;;;;;12.77;8.98;;;;;;;0.49;84.65;100160.31;6216500;23;20016;-78
2021/12/26 02:33:18;;;;;;;16.00;9.43;;;;;;;0.47;84.61;100167.34;6215793;23;20088;-79
2021/12/26 02:35:48;;;;;;;11.73;9.00;;;;;;;0.41;84.95;100161.78;6215363;23;20017;-78
2021/12/26 02:38:16;;;;;;;12.50;9.60;;;;;;;0.38;85.54;100157.66;6216617;23;20023;-78
2021/12/26 02:40:44;;;;;;;13.15;9.20;;;;;;;0.39;85.19;100156.72;6217813;23;20082;-79
2021/12/26 02:43:14;;;;;;;13.63;9.23;;;;;;;0.40;85.56;100165.28;6216803;23;20048;-80
2021/12/26 02:45:41;;;;;;;12.88;9.27;;;;;;;0.46;85.03;100165.69;6216260;23;20397;-79
2021/12/26 02:48:09;;;;;;;13.13;9.45;;;;;;;0.48;85.63;100165.56;6215924;23;20020;-78
2021/12/26 02:50:38;;;;;;;15.23;9.93;;;;;;;0.54;85.00;100162.56;6215660;23;20091;-78
2021/12/26 02:53:08;;;;;;;13.35;9.35;;;;;;;0.57;85.01;100159.78;6216143;23;20040;-78
2021/12/26 02:55:35;;;;;;;14.15;9.52;;;;;;;0.58;85.18;100166.59;6216299;23;20027;-80
2021/12/26 02:58:05;;;;;;;15.32;10.05;;;;;;;0.57;85.42;100149.50;6215308;23;20088;-78
2021/12/26 03:00:37;;;;;;;14.30;9.25;;;;;;;0.56;85.54;100155.56;6215830;23;20096;-79
2021/12/26 03:03:06;;;;;;;14.13;10.13;;;;;;;0.58;85.59;100154.53;6215695;23;20036;-79
2021/12/26 03:05:35;;;;;;;14.95;10.68;;;;;;;0.58;85.60;100161.44;6215459;23;20100;-78
2021/12/26 03:08:02;;;;;;;15.48;10.15;;;;;;;0.60;85.65;100155.25;6215940;23;20071;-80
2021/12/26 03:10:30;;;;;;;15.25;10.75;;;;;;;0.64;84.89;100161.03;6214645;23;20012;-78
2021/12/26 03:13:00;;;;;;;14.85;10.60;;;;;;;0.67;84.61;100158.25;6215293;23;20043;-78
2021/12/26 03:15:29;;;;;;;14.80;10.07;;;;;;;0.68;84.59;100159.88;6215275;23;20020;-78
2021/12/26 03:17:57;;;;;;;16.05;10.32;;;;;;;0.69;84.76;100156.38;6213618;23;20049;-78
2021/12/26 03:20:26;;;;;;;15.95;10.07;;;;;;;0.66;84.47;100144.53;6214754;23;20017;-77
2021/12/26 03:22:53;;;;;;;14.02;10.02;;;;;;;0.68;84.85;100154.75;6215449;23;20096;-78
2021/12/26 03:25:21;;;;;;;14.73;10.45;;;;;;;0.68;84.76;100147.00;6215152;23;20100;-78
2021/12/26 03:27:50;;;;;;;15.82;10.40;;;;;;;0.66;84.98;100136.81;6214969;23;20096;-79
2021/12/26 03:30:20;;;;;;;14.32;10.18;;;;;;;0.68;84.56;100144.44;6215018;23;20088;-81
2021/12/26 03:32:47;;;;;;;14.90;10.02;;;;;;;0.68;84.72;100141.88;6214863;23;20059;-78
2021/12/26 03:35:14;;;;;;;15.20;10.55;;;;;;;0.67;84.77;100137.66;6214295;23;20286;-78
2021/12/26 03:37:42;;;;;;;17.08;11.27;;;;;;;0.67;84.76;100147.94;6214515;23;20052;-78
2021/12/26 03:40:10;;;;;;;15.45;9.98;;;;;;;0.70;85.06;100141.75;6214493;23;20048;-78
2021/12/26 03:42:37;;;;;;;15.52;9.98;;;;;;;0.68;84.83;100138.47;6215719;23;20021;-78
2021/12/26 03:45:08;;;;;;;15.80;10.57;;;;;;;0.67;85.11;100147.94;6216115;23;20052;-81
2021/12/26 03:47:35;;;;;;;16.88;11.77;;;;;;;0.73;84.77;100151.84;6220424;23;20017;-79
2021/12/26 03:50:01;;;;;;;15.63;10.48;;;;;;;0.70;85.07;100137.44;6223028;23;20058;-80
2021/12/26 03:52:28;;;;;;;15.45;10.65;;;;;;;0.68;85.04;100136.72;6223418;23;20028;-79
2021/12/26 03:54:55;;;;;;;16.20;10.77;;;;;;;0.72;85.40;100139.91;6217196;23;20104;-79
2021/12/26 03:57:22;;;;;;;16.05;10.85;;;;;;;0.69;85.08;100135.78;6216934;23;20095;-78
2021/12/26 03:59:49;;;;;;;16.17;11.27;;;;;;;0.70;85.37;100132.28;6216576;23;20016;-79
2021/12/26 04:02:17;;;;;;;14.82;10.23;;;;;;;0.71;85.57;100133.94;6217107;23;20096;-78
2021/12/26 04:04:45;;;;;;;16.58;10.93;;;;;;;0.70;85.35;100131.47;6217284;23;20052;-79
2021/12/26 04:07:13;;;;;;;16.17;11.70;;;;;;;0.75;85.48;100126.81;6217384;23;20092;-79
2021/12/26 04:09:40;;;;;;;17.75;11.82;;;;;;;0.75;85.16;100137.13;6217729;23;20081;-78
2021/12/26 04:12:08;;;;;;;17.50;11.77;;;;;;;0.74;85.43;100132.91;6218550;23;20456;-78
2021/12/26 04:14:53;;;;;;;17.27;10.98;;;;;;;0.71;85.94;100128.78;6192999;23;20024;-80
2021/12/26 04:17:28;;;;;;;17.42;11.88;;;;;;;0.69;85.32;100115.19;6189127;23;20388;-79
2021/12/26 04:20:04;;;;;;;17.88;11.18;;;;;;;0.68;85.41;100120.44;6190820;23;20087;-80
2021/12/26 04:22:36;;;;;;;18.33;11.65;;;;;;;0.62;85.25;100111.38;6191708;23;20076;-81
2021/12/26 04:25:09;;;;;;;17.17;11.95;;;;;;;0.72;85.29;100114.16;6190865;23;20021;-81
2021/12/26 04:27:38;;;;;;;16.27;11.60;;;;;;;0.75;85.49;100127.66;6191092;23;20017;-80
2021/12/26 04:30:06;;;;;;;17.60;10.48;;;;;;;0.65;85.24;100100.88;6191619;23;20057;-79
2021/12/26 04:32:37;;;;;;;18.35;11.38;;;;;;;0.76;85.54;100111.25;6190024;23;20017;-81
2021/12/26 04:35:08;;;;;;;18.83;11.70;;;;;;;0.64;85.35;100099.22;6188461;23;20028;-81
2021/12/26 04:37:40;;;;;;;18.83;11.75;;;;;;;0.66;85.63;100092.22;6188148;23;20017;-80
2021/12/26 04:40:13;;;;;;;16.85;11.35;;;;;;;0.74;85.53;100112.28;6185349;23;20032;-80
2021/12/26 04:42:51;;;;;;;17.15;11.00;;;;;;;0.69;85.22;100101.50;6186141;23;20446;-79
2021/12/26 04:45:21;;;;;;;16.98;11.57;;;;;;;0.74;85.66;100100.25;6187725;23;20020;-81
2021/12/26 04:48:01;;;;;;;16.73;11.43;;;;;;;0.77;85.25;100101.78;6188788;23;20025;-79
2021/12/26 04:50:28;;;;;;;16.90;11.18;;;;;;;0.78;85.13;100099.09;6187079;23;20333;-80
2021/12/26 04:52:56;;;;;;;16.98;11.48;;;;;;;0.79;84.69;100107.66;6185440;23;20012;-79
2021/12/26 04:55:26;;;;;;;17.05;11.60;;;;;;;0.80;85.25;100122.19;6189871;23;20017;-80
2021/12/26 04:57:53;;;;;;;15.88;11.35;;;;;;;0.77;85.24;100123.22;6165148;23;20017;-81
2021/12/26 05:00:24;;;;;;;19.00;11.60;;;;;;;0.75;85.41;100108.78;6191123;23;20013;-79
2021/12/26 05:02:53;;;;;;;17.38;11.38;;;;;;;0.74;85.51;100100.25;6188020;23;20497;-79
2021/12/26 05:05:21;;;;;;;17.15;11.55;;;;;;;0.74;85.44;100104.56;6189478;23;20067;-80
2021/12/26 05:07:49;;;;;;;18.85;12.30;;;;;;;0.75;85.76;100114.78;6189637;23;20021;-81
2021/12/26 05:10:18;;;;;;;19.15;11.75;;;;;;;0.77;85.70;100122.38;6191050;23;20278;-80
2021/12/26 05:12:46;;;;;;;17.13;11.30;;;;;;;0.77;85.39;100119.81;6191098;23;20044;-80
2021/12/26 05:15:16;;;;;;;17.98;12.43;;;;;;;0.75;85.58;100114.78;6190966;23;20028;-79
2021/12/26 05:17:43;;;;;;;18.05;11.95;;;;;;;0.75;85.23;100121.66;6166055;23;20020;-81
2021/12/26 05:20:12;;;;;;;19.30;11.80;;;;;;;0.75;85.48;100124.25;6190023;23;20021;-81
2021/12/26 05:22:39;;;;;;;17.52;12.52;;;;;;;0.78;85.36;100124.03;6187764;23;20024;-81
2021/12/26 05:25:07;;;;;;;19.02;12.18;;;;;;;0.74;86.15;100123.41;6188146;23;20097;-80
2021/12/26 05:27:34;;;;;;;18.65;12.48;;;;;;;0.75;85.51;100119.91;6189415;23;20056;-81
2021/12/26 05:30:01;;;;;;;17.25;12.23;;;;;;;0.76;85.69;100110.44;6189538;23;20106;-82
2021/12/26 05:32:28;;;;;;;16.77;11.35;;;;;;;0.77;85.22;100112.91;6189526;23;20021;-81
2021/12/26 05:34:55;;;;;;;18.00;11.88;;;;;;;0.76;85.83;100121.56;6189331;23;20044;-80
2021/12/26 05:37:23;;;;;;;18.77;13.05;;;;;;;0.76;85.15;100119.00;6189719;23;20112;-80
2021/12/26 05:39:49;;;;;;;18.45;12.30;;;;;;;0.76;85.69;100116.41;6189067;23;20020;-79
2021/12/26 05:42:16;;;;;;;17.30;11.65;;;;;;;0.81;85.18;100116.09;6189702;23;20021;-80
2021/12/26 05:44:43;;;;;;;17.70;12.48;;;;;;;0.78;85.70;100119.72;6190092;23;20028;-79
2021/12/26 05:47:10;;;;;;;19.73;13.00;;;;;;;0.75;85.71;100114.78;6184250;23;20048;-80
2021/12/26 05:49:36;;;;;;;19.55;12.98;;;;;;;0.75;85.95;100117.34;6160819;23;20132;-80
2021/12/26 05:52:04;;;;;;;21.92;13.40;;;;;;;0.74;85.10;100105.41;6163419;23;20053;-79
2021/12/26 05:54:32;;;;;;;21.40;14.15;;;;;;;0.74;85.70;100104.56;6162371;23;20052;-78
2021/12/26 05:56:58;;;;;;;19.35;12.32;;;;;;;0.75;85.62;100101.91;6162328;23;20045;-79
2021/12/26 05:59:25;;;;;;;19.60;12.98;;;;;;;0.73;85.77;100093.44;6162093;23;20057;-79
2021/12/26 06:01:52;;;;;;;19.92;12.30;;;;;;;0.76;85.92;100090.66;6163747;23;20026;-79
2021/12/26 06:04:18;;;;;;;21.05;13.60;;;;;;;0.76;86.02;100105.28;6162389;23;20092;-79
2021/12/26 06:06:45;;;;;;;20.05;13.27;;;;;;;0.76;85.68;100093.25;6160265;23;20041;-80
2021/12/26 06:09:12;;;;;;;20.13;12.68;;;;;;;0.75;85.40;100101.91;6159775;23;20056;-79
2021/12/26 06:11:40;;;;;;;21.27;13.13;;;;;;;0.76;85.84;100100.97;6160576;23;20017;-80
2021/12/26 06:14:06;;;;;;;19.25;12.90;;;;;;;0.76;85.68;100100.97;6159548;23;20025;-80
2021/12/26 06:16:33;;;;;;;20.23;13.13;;;;;;;0.76;85.79;100100.97;6159403;23;20283;-79
2021/12/26 06:19:00;;;;;;;22.50;12.95;;;;;;;0.75;85.93;100096.75;6160201;23;20021;-79
2021/12/26 06:21:26;;;;;;;20.90;13.55;;;;;;;0.75;85.93;100093.34;6160552;23;20065;-79
2021/12/26 06:23:53;;;;;;;23.38;14.02;;;;;;;0.75;85.90;100104.47;6159537;23;20014;-80
2021/12/26 06:26:20;;;;;;;20.20;13.75;;;;;;;0.75;85.85;100098.50;6160500;23;20405;-79
2021/12/26 06:28:50;;;;;;;18.05;12.55;;;;;;;0.78;85.55;100093.94;6157616;23;20041;-79
2021/12/26 06:31:17;;;;;;;19.58;13.60;;;;;;;0.78;85.83;100093.13;6159418;23;20045;-80
2021/12/26 06:33:44;;;;;;;21.35;13.57;;;;;;;0.78;85.70;100106.00;6160839;23;20021;-81
2021/12/26 06:36:11;;;;;;;22.08;13.75;;;;;;;0.80;85.66;100093.84;6160614;23;20104;-79
2021/12/26 06:38:39;;;;;;;20.15;13.80;;;;;;;0.79;85.63;100093.03;6159998;23;20088;-79
2021/12/26 06:41:08;;;;;;;20.15;13.75;;;;;;;0.78;86.20;100091.38;6160108;23;20056;-80
2021/12/26 06:43:37;;;;;;;20.85;13.98;;;;;;;0.78;86.20;100087.97;6160410;23;20406;-81
2021/12/26 06:46:06;;;;;;;20.95;14.40;;;;;;;0.76;86.17;100098.38;6160727;23;20021;-79
2021/12/26 06:48:34;;;;;;;21.63;13.73;;;;;;;0.78;86.63;100088.81;6160667;23;20022;-81
2021/12/26 06:51:00;;;;;;;20.38;13.40;;;;;;;0.80;86.33;100102.41;6160539;23;20057;-80
2021/12/26 06:53:27;;;;;;;22.15;14.80;;;;;;;0.81;86.47;100092.91;6160428;23;20060;-80
2021/12/26 06:55:54;;;;;;;20.02;13.73;;;;;;;0.80;85.98;100097.25;6160323;23;20333;-80
2021/12/26 06:58:21;;;;;;;20.98;13.45;;;;;;;0.83;86.25;100079.00;6160430;23;20049;-78
2021/12/26 07:00:50;;;;;;;22.25;14.07;;;;;;;0.81;86.44;100088.59;6160409;23;20049;-78
2021/12/26 07:03:18;;;;;;;22.27;14.13;;;;;;;0.83;86.40;100091.88;6160917;23;20072;-81
2021/12/26 07:05:45;;;;;;;21.13;13.88;;;;;;;0.81;86.40;100087.78;6160429;23;20072;-79
2021/12/26 07:08:12;;;;;;;22.45;14.80;;;;;;;0.82;86.02;100094.56;6159033;23;20105;-80
2021/12/26 07:10:38;;;;;;;21.27;14.43;;;;;;;0.80;86.48;100099.81;6159567;23;20070;-80
2021/12/26 07:13:05;;;;;;;22.50;14.55;;;;;;;0.83;86.27;100101.38;6156765;23;20393;-79
2021/12/26 07:15:31;;;;;;;20.30;13.65;;;;;;;0.83;86.62;100103.94;6158661;23;20021;-79
2021/12/26 07:17:58;;;;;;;21.33;14.02;;;;;;;0.82;86.30;100110.84;6158287;23;20036;-80
2021/12/26 07:20:26;;;;;;;21.77;14.20;;;;;;;0.83;86.65;100111.66;6157505;23;20009;-79
2021/12/26 07:22:53;;;;;;;21.48;13.85;;;;;;;0.81;86.87;100113.53;6162162;23;20075;-80
2021/12/26 07:25:19;;;;;;;23.17;14.85;;;;;;;0.84;86.77;100111.56;6162065;23;20023;-79
2021/12/26 07:27:46;;;;;;;22.05;14.55;;;;;;;0.85;87.04;100118.34;6161960;23;20063;-79
2021/12/26 07:30:13;;;;;;;19.63;13.15;;;;;;;0.85;86.69;100115.78;6161545;23;20096;-80
2021/12/26 07:32:40;;;;;;;23.25;14.88;;;;;;;0.86;86.75;100120.00;6163759;23;20071;-80
2021/12/26 07:35:10;;;;;;;24.13;14.73;;;;;;;0.86;86.23;100119.19;6162865;23;20045;-80
2021/12/26 07:37:38;;;;;;;22.17;14.32;;;;;;;0.89;86.10;100121.53;6163784;23;20473;-80
2021/12/26 07:40:06;;;;;;;22.30;13.85;;;;;;;0.90;86.00;100116.28;6161107;23;20100;-79
2021/12/26 07:42:33;;;;;;;22.55;13.73;;;;;;;0.89;85.97;100117.22;6159591;23;20053;-81
2021/12/26 07:45:00;;;;;;;20.55;13.90;;;;;;;0.91;85.72;100122.25;6161127;23;20021;-80
2021/12/26 07:47:26;;;;;;;19.35;13.52;;;;;;;0.89;86.01;100118.97;6160136;23;20045;-80
2021/12/26 07:49:53;;;;;;;23.05;13.75;;;;;;;0.94;85.79;100111.75;6161353;23;20056;-80
2021/12/26 07:52:24;;;;;;;20.13;13.35;;;;;;;0.93;85.81;100112.69;6160659;23;20108;-80
2021/12/26 07:54:52;;;;;;;20.77;13.45;;;;;;;0.95;86.10;100103.88;6162072;23;20022;-80
2021/12/26 07:57:19;;;;;;;22.35;14.00;;;;;;;0.95;85.98;100105.63;6162576;23;20021;-81
2021/12/26 07:59:48;;;;;;;23.27;13.65;;;;;;;0.95;86.23;100109.03;6161591;23;20025;-80
2021/12/26 08:02:18;;;;;;;25.33;14.15;;;;;;;1.04;86.39;100105.00;6161595;23;20130;-80
2021/12/26 08:04:45;;;;;;;20.50;13.90;;;;;;;1.02;85.84;100111.19;6158469;23;20060;-78
2021/12/26 08:07:11;;;;;;;22.27;14.23;;;;;;;1.03;85.88;100107.69;6158863;23;20092;-78
2021/12/26 08:09:38;;;;;;;19.55;13.77;;;;;;;1.02;86.01;100112.00;6160104;23;20395;-78
2021/12/26 08:12:08;;;;;;;21.48;13.65;;;;;;;1.18;86.39;100101.44;6162081;23;20690;-78
2021/12/26 08:14:34;;;;;;;22.60;14.60;;;;;;;1.11;86.08;100110.53;6161074;23;20056;-79
2021/12/26 08:17:01;;;;;;;22.73;14.43;;;;;;;1.14;85.81;100118.06;6161489;23;20040;-80
2021/12/26 08:19:28;;;;;;;23.33;14.05;;;;;;;1.13;85.63;100116.41;6161896;23;20022;-80
2021/12/26 08:21:54;;;;;;;22.80;13.30;;;;;;;1.12;85.67;100107.03;6161850;23;20064;-80
2021/12/26 08:24:22;;;;;;;21.73;14.70;;;;;;;1.14;85.90;100115.47;6161246;23;20024;-80
2021/12/26 08:26:51;;;;;;;19.77;13.57;;;;;;;1.15;85.46;100117.13;6160648;23;20027;-80
2021/12/26 08:29:21;;;;;;;22.75;15.10;;;;;;;1.16;85.81;100119.59;6159904;23;20033;-80
2021/12/26 08:31:49;;;;;;;24.25;14.82;;;;;;;1.20;85.48;100113.28;6159538;23;20022;-79
2021/12/26 08:34:19;;;;;;;21.08;13.32;;;;;;;1.20;85.55;100121.03;6158512;23;20018;-81
2021/12/26 08:36:48;;;;;;;20.70;13.88;;;;;;;1.25;85.30;100113.78;6157973;23;20467;-80
2021/12/26 08:39:15;;;;;;;21.13;14.10;;;;;;;1.25;85.28;100123.28;6159048;23;20021;-80
2021/12/26 08:41:41;;;;;;;21.25;13.93;;;;;;;1.24;85.91;100121.63;6159951;23;20014;-81
2021/12/26 08:44:08;;;;;;;22.73;14.50;;;;;;;1.27;85.97;100113.69;6162995;23;20057;-81
2021/12/26 08:46:36;;;;;;;20.20;13.90;;;;;;;1.30;85.68;100116.03;6164059;23;20028;-80
2021/12/26 08:49:03;;;;;;;23.02;15.23;;;;;;;1.32;85.75;100116.75;6167209;23;20029;-81
2021/12/26 08:51:29;;;;;;;20.98;13.93;;;;;;;1.32;86.56;100115.00;6167795;23;20044;-80
2021/12/26 08:53:56;;;;;;;23.08;14.57;;;;;;;1.34;85.70;100112.31;6167039;23;20056;-81
2021/12/26 08:56:23;;;;;;;22.30;14.70;;;;;;;1.34;86.35;100117.47;6171886;23;20349;-81
2021/12/26 08:58:49;;;;;;;21.27;14.18;;;;;;;1.32;86.31;100109.03;6169219;23;20045;-81
2021/12/26 09:01:16;;;;;;;24.60;14.88;;;;;;;1.32;86.44;100116.75;6168784;23;20017;-81
2021/12/26 09:03:44;;;;;;;21.35;14.68;;;;;;;1.36;86.26;100120.75;6165939;23;20064;-83
2021/12/26 09:06:11;;;;;;;20.23;14.27;;;;;;;1.42;86.42;100122.88;6165585;23;20017;-83
2021/12/26 09:08:37;;;;;;;22.35;15.18;;;;;;;1.48;85.75;100125.03;6165291;23;20022;-83
2021/12/26 09:11:04;;;;;;;22.63;14.55;;;;;;;1.50;85.32;100120.56;6168805;23;20025;-82
2021/12/26 09:13:31;;;;;;;20.42;14.07;;;;;;;1.50;85.33;100125.72;6161791;23;20013;-81
2021/12/26 09:15:57;;;;;;;24.63;15.40;;;;;;;1.60;85.69;100128.47;6162351;23;20331;-82
2021/12/26 09:18:24;;;;;;;23.48;14.35;;;;;;;1.65;85.22;100122.06;6163287;23;20022;-83
2021/12/26 09:20:52;;;;;;;20.85;13.50;;;;;;;1.60;84.93;100124.13;6165201;23;20393;-79
2021/12/26 09:23:19;;;;;;;22.27;14.27;;;;;;;1.66;85.22;100134.00;6165108;23;20052;-79
2021/12/26 09:25:45;;;;;;;23.58;13.80;;;;;;;1.69;85.54;100132.97;6164420;23;20076;-80
2021/12/26 09:28:12;;;;;;;20.17;13.73;;;;;;;1.70;85.19;100144.09;6164172;23;20024;-80
2021/12/26 09:30:39;;;;;;;20.83;13.55;;;;;;;1.71;84.85;100140.59;6163154;23;20017;-80
2021/12/26 09:33:06;;;;;;;20.33;14.00;;;;;;;1.70;85.53;100129.47;6164966;23;20048;-80
2021/12/26 09:35:36;;;;;;;23.38;14.55;;;;;;;1.63;86.01;100138.56;6163802;23;20021;-79
2021/12/26 09:38:05;;;;;;;20.42;14.13;;;;;;;1.61;86.34;100136.09;6164547;23;20030;-79
2021/12/26 09:40:32;;;;;;;23.52;15.23;;;;;;;1.56;87.17;100129.63;6164623;23;20037;-80
2021/12/26 09:42:59;;;;;;;22.98;15.40;;;;;;;1.48;87.38;100143.06;6164205;23;20077;-79
2021/12/26 09:45:26;;;;;;;23.40;15.02;;;;;;;1.44;88.32;100145.97;6164127;23;20029;-80
2021/12/26 09:47:53;;;;;;;24.27;15.50;;;;;;;1.42;88.91;100138.34;6164692;23;20096;-80
2021/12/26 09:50:22;;;;;;;24.42;16.17;;;;;;;1.41;89.37;100141.06;6166334;23;20029;-79
2021/12/26 09:52:53;;;;;;;25.13;16.83;;;;;;;1.38;89.73;100134.38;6165790;23;20021;-79
2021/12/26 09:55:21;;;;;;;26.40;16.20;;;;;;;1.36;89.83;100131.06;6164202;23;20032;-79
2021/12/26 09:57:48;;;;;;;26.02;16.70;;;;;;;1.35;90.38;100133.75;6164088;23;20025;-79
2021/12/26 10:00:25;;;;;;;24.70;15.68;;;;;;;1.40;90.20;100124.78;6165256;23;20410;-79
2021/12/26 10:03:17;;;;;;;22.70;15.60;;;;;;;1.45;89.67;100114.91;6163096;23;20025;-81
2021/12/26 10:06:08;;;;;;;24.92;15.40;;;;;;;1.45;89.14;100120.06;6165194;23;20029;-81
2021/12/26 10:08:50;;;;;;;25.58;15.35;;;;;;;1.48;89.04;100129.34;6163160;23;20112;-80
2021/12/26 10:11:21;;;;;;;24.15;14.60;;;;;;;1.56;88.71;100120.13;6163930;23;20049;-81
2021/12/26 10:13:51;;;;;;;21.80;14.32;;;;;;;1.40;88.24;100093.00;6158124;23;22627;-79
2021/12/26 10:16:21;;;;;;;26.05;16.48;;;;;;;1.54;88.14;100098.78;6154238;23;20076;-78
2021/12/26 10:18:49;;;;;;;23.92;15.55;;;;;;;1.62;87.65;100117.13;6153330;23;20377;-79
2021/12/26 10:21:41;;;;;;;23.00;14.98;;;;;;;1.59;87.46;100106.19;6153448;23;20013;-78
2021/12/26 10:24:20;;;;;;;23.60;14.90;;;;;;;1.67;87.76;100112.44;6151739;23;20024;-78
2021/12/26 10:26:51;;;;;;;25.95;15.90;;;;;;;1.70;87.60;100108.00;6151996;23;20405;-78
2021/12/26 10:29:24;;;;;;;23.77;15.55;;;;;;;1.76;87.51;100095.47;6154708;23;20067;-79
2021/12/26 10:32:00;;;;;;;23.08;15.48;;;;;;;1.84;86.78;100082.84;6153777;23;20028;-79
2021/12/26 10:34:32;;;;;;;23.20;15.15;;;;;;;1.92;86.97;100082.25;6153455;23;20474;-76
2021/12/26 10:37:02;;;;;;;22.02;14.85;;;;;;;1.97;86.25;100072.41;6154419;23;20025;-79
2021/12/26 10:39:31;;;;;;;22.85;14.65;;;;;;;1.92;86.88;100067.59;6154665;23;20076;-79
2021/12/26 10:42:01;;;;;;;21.60;14.65;;;;;;;1.99;86.77;100068.78;6157906;23;20028;-80
2021/12/26 10:44:32;;;;;;;25.38;15.45;;;;;;;2.05;86.89;100077.00;6156624;23;20025;-81
2021/12/26 10:47:05;;;;;;;22.23;15.25;;;;;;;2.05;87.05;100066.69;6156901;23;20025;-79
2021/12/26 10:49:35;;;;;;;;;;;;;;;2.11;87.29;100074.78;6155852;23;20136;-79
2021/12/26 10:52:05;;;;;;;22.33;15.15;;;;;;;2.06;87.28;100071.72;6157282;23;20257;-79
2021/12/26 10:54:32;;;;;;;23.15;14.65;;;;;;;2.04;87.57;100073.59;6154354;23;20402;-81
2021/12/26 10:57:05;;;;;;;27.75;15.00;;;;;;;2.04;87.80;100070.19;6156336;23;20029;-80
2021/12/26 10:59:32;;;;;;;21.90;14.52;;;;;;;1.96;88.11;100065.59;6155711;23;20068;-80
2021/12/26 11:01:59;;;;;;;22.27;14.98;;;;;;;1.96;88.19;100066.44;6155676;23;20402;-79
2021/12/26 11:04:26;;;;;;;22.90;15.30;;;;;;;2.00;88.77;100065.25;6155882;23;20018;-79
2021/12/26 11:07:04;;;;;;;24.00;15.85;;;;;;;1.97;88.80;100062.91;6154817;23;20021;-81
2021/12/26 11:09:31;;;;;;;22.45;14.73;;;;;;;2.02;89.20;100066.91;6154793;23;20040;-81
2021/12/26 11:12:00;;;;;;;25.13;15.60;;;;;;;1.97;89.09;100055.16;6155781;23;20085;-79
2021/12/26 11:14:29;;;;;;;24.15;15.52;;;;;;;1.93;89.39;100055.50;6155105;23;20072;-81
2021/12/26 11:16:56;;;;;;;22.67;15.10;;;;;;;1.95;88.91;100051.88;6155695;23;20025;-80
2021/12/26 11:19:43;;;;;;;25.58;16.13;;;;;;;1.94;89.16;100049.41;6155608;23;20354;-79
2021/12/26 11:22:10;;;;;;;22.52;14.93;;;;;;;1.99;88.71;100052.47;6156975;23;20017;-79
2021/12/26 11:24:38;;;;;;;19.83;13.73;;;;;;;2.09;88.73;100035.38;6156972;23;20052;-80
2021/12/26 11:27:05;;;;;;;22.65;14.73;;;;;;;2.21;88.34;100051.69;6156929;23;20022;-80
2021/12/26 11:29:34;;;;;;;21.50;14.88;;;;;;;2.18;87.53;100051.91;6156845;23;20018;-80